sensor_id;sensor_type;location;lat;lon;timestamp;P1;durP1;ratioP1;P2;durP2;ratioP2
19599;SDS011;9947;57.722;12.012;2023-07-28T00:00:39;7.43;;;4.70;;
19599;SDS011;9947;57.722;12.012;2023-07-28T00:03:06;6.27;;;5.13;;
19599;SDS011;9947;57.722;12.012;2023-07-28T00:05:33;10.47;;;6.03;;
19599;SDS011;9947;57.722;12.012;2023-07-28T00:08:02;11.00;;;5.50;;
19599;SDS011;9947;57.722;12.012;2023-07-28T00:10:29;10.10;;;4.90;;
19599;SDS011;9947;57.722;12.012;2023-07-28T00:12:58;9.13;;;5.13;;
19599;SDS011;9947;57.722;12.012;2023-07-28T00:15:27;13.93;;;5.90;;
19599;SDS011;9947;57.722;12.012;2023-07-28T00:17:57;11.40;;;5.23;;
19599;SDS011;9947;57.722;12.012;2023-07-28T00:20:25;11.03;;;5.07;;
19599;SDS011;9947;57.722;12.012;2023-07-28T00:22:55;7.73;;;5.30;;
19599;SDS011;9947;57.722;12.012;2023-07-28T00:25:22;9.87;;;5.47;;
19599;SDS011;9947;57.722;12.012;2023-07-28T00:27:50;9.70;;;4.97;;
19599;SDS011;9947;57.722;12.012;2023-07-28T00:30:17;10.33;;;5.13;;
19599;SDS011;9947;57.722;12.012;2023-07-28T00:32:44;7.40;;;5.57;;
19599;SDS011;9947;57.722;12.012;2023-07-28T00:35:13;9.23;;;5.20;;
19599;SDS011;9947;57.722;12.012;2023-07-28T00:37:40;9.43;;;5.70;;
19599;SDS011;9947;57.722;12.012;2023-07-28T00:40:07;12.97;;;6.00;;
19599;SDS011;9947;57.722;12.012;2023-07-28T00:42:36;10.53;;;5.97;;
19599;SDS011;9947;57.722;12.012;2023-07-28T00:45:06;10.33;;;6.07;;
19599;SDS011;9947;57.722;12.012;2023-07-28T00:47:34;9.53;;;5.00;;
19599;SDS011;9947;57.722;12.012;2023-07-28T00:50:01;8.20;;;5.17;;
19599;SDS011;9947;57.722;12.012;2023-07-28T00:52:29;11.80;;;6.20;;
19599;SDS011;9947;57.722;12.012;2023-07-28T00:54:57;10.57;;;5.57;;
19599;SDS011;9947;57.722;12.012;2023-07-28T00:57:24;9.23;;;5.50;;
19599;SDS011;9947;57.722;12.012;2023-07-28T00:59:53;11.10;;;5.77;;
19599;SDS011;9947;57.722;12.012;2023-07-28T01:02:20;8.30;;;5.57;;
19599;SDS011;9947;57.722;12.012;2023-07-28T01:04:51;15.33;;;5.73;;
19599;SDS011;9947;57.722;12.012;2023-07-28T01:07:23;13.53;;;5.60;;
19599;SDS011;9947;57.722;12.012;2023-07-28T01:10:02;8.90;;;5.13;;
19599;SDS011;9947;57.722;12.012;2023-07-28T01:12:39;8.17;;;5.00;;
19599;SDS011;9947;57.722;12.012;2023-07-28T01:15:08;9.50;;;4.80;;
19599;SDS011;9947;57.722;12.012;2023-07-28T01:17:36;6.33;;;5.17;;
19599;SDS011;9947;57.722;12.012;2023-07-28T01:20:04;11.57;;;5.43;;
19599;SDS011;9947;57.722;12.012;2023-07-28T01:22:37;9.63;;;4.97;;
19599;SDS011;9947;57.722;12.012;2023-07-28T01:25:21;11.20;;;5.00;;
19599;SDS011;9947;57.722;12.012;2023-07-28T01:27:59;10.97;;;4.53;;
19599;SDS011;9947;57.722;12.012;2023-07-28T01:30:27;12.47;;;5.37;;
19599;SDS011;9947;57.722;12.012;2023-07-28T01:32:55;7.87;;;5.20;;
19599;SDS011;9947;57.722;12.012;2023-07-28T01:35:23;10.93;;;5.53;;
19599;SDS011;9947;57.722;12.012;2023-07-28T01:37:51;7.10;;;4.73;;
19599;SDS011;9947;57.722;12.012;2023-07-28T01:40:20;6.77;;;4.77;;
19599;SDS011;9947;57.722;12.012;2023-07-28T01:42:48;10.00;;;5.27;;
19599;SDS011;9947;57.722;12.012;2023-07-28T01:45:19;6.27;;;5.00;;
19599;SDS011;9947;57.722;12.012;2023-07-28T01:47:46;8.63;;;4.97;;
19599;SDS011;9947;57.722;12.012;2023-07-28T01:50:13;11.53;;;5.10;;
19599;SDS011;9947;57.722;12.012;2023-07-28T01:52:42;11.00;;;5.40;;
19599;SDS011;9947;57.722;12.012;2023-07-28T01:55:09;10.13;;;5.10;;
19599;SDS011;9947;57.722;12.012;2023-07-28T01:57:38;7.07;;;5.03;;
19599;SDS011;9947;57.722;12.012;2023-07-28T02:00:07;11.27;;;5.37;;
19599;SDS011;9947;57.722;12.012;2023-07-28T02:02:37;9.73;;;5.73;;
19599;SDS011;9947;57.722;12.012;2023-07-28T02:05:06;10.57;;;4.73;;
19599;SDS011;9947;57.722;12.012;2023-07-28T02:07:35;8.17;;;5.03;;
19599;SDS011;9947;57.722;12.012;2023-07-28T02:10:09;8.97;;;5.37;;
19599;SDS011;9947;57.722;12.012;2023-07-28T02:12:36;10.47;;;5.10;;
19599;SDS011;9947;57.722;12.012;2023-07-28T02:15:05;9.97;;;5.40;;
19599;SDS011;9947;57.722;12.012;2023-07-28T02:17:33;13.20;;;5.57;;
19599;SDS011;9947;57.722;12.012;2023-07-28T02:20:05;15.43;;;5.50;;
19599;SDS011;9947;57.722;12.012;2023-07-28T02:22:35;14.07;;;5.40;;
19599;SDS011;9947;57.722;12.012;2023-07-28T02:25:03;10.90;;;5.53;;
19599;SDS011;9947;57.722;12.012;2023-07-28T02:27:30;7.90;;;5.07;;
19599;SDS011;9947;57.722;12.012;2023-07-28T02:29:57;9.37;;;5.17;;
19599;SDS011;9947;57.722;12.012;2023-07-28T02:32:27;10.97;;;5.37;;
19599;SDS011;9947;57.722;12.012;2023-07-28T02:35:12;13.30;;;5.23;;
19599;SDS011;9947;57.722;12.012;2023-07-28T02:37:44;8.90;;;4.90;;
19599;SDS011;9947;57.722;12.012;2023-07-28T02:40:14;10.83;;;5.60;;
19599;SDS011;9947;57.722;12.012;2023-07-28T02:42:46;9.37;;;5.53;;
19599;SDS011;9947;57.722;12.012;2023-07-28T02:45:22;8.83;;;5.17;;
19599;SDS011;9947;57.722;12.012;2023-07-28T02:47:51;11.60;;;5.60;;
19599;SDS011;9947;57.722;12.012;2023-07-28T02:50:21;11.57;;;5.53;;
19599;SDS011;9947;57.722;12.012;2023-07-28T02:52:48;6.53;;;5.33;;
19599;SDS011;9947;57.722;12.012;2023-07-28T02:55:22;9.00;;;4.70;;
19599;SDS011;9947;57.722;12.012;2023-07-28T02:57:52;7.77;;;5.37;;
19599;SDS011;9947;57.722;12.012;2023-07-28T03:05:24;13.98;;;5.68;;
19599;SDS011;9947;57.722;12.012;2023-07-28T03:07:52;10.30;;;5.63;;
19599;SDS011;9947;57.722;12.012;2023-07-28T03:10:23;13.77;;;6.07;;
19599;SDS011;9947;57.722;12.012;2023-07-28T03:12:51;8.33;;;5.03;;
19599;SDS011;9947;57.722;12.012;2023-07-28T03:15:20;10.53;;;5.03;;
19599;SDS011;9947;57.722;12.012;2023-07-28T03:17:47;9.37;;;5.33;;
19599;SDS011;9947;57.722;12.012;2023-07-28T03:20:15;12.13;;;5.70;;
19599;SDS011;9947;57.722;12.012;2023-07-28T03:22:44;12.00;;;5.83;;
19599;SDS011;9947;57.722;12.012;2023-07-28T03:25:12;8.53;;;5.07;;
19599;SDS011;9947;57.722;12.012;2023-07-28T03:27:39;12.90;;;5.30;;
19599;SDS011;9947;57.722;12.012;2023-07-28T03:30:07;13.63;;;4.93;;
19599;SDS011;9947;57.722;12.012;2023-07-28T03:32:35;10.50;;;5.70;;
19599;SDS011;9947;57.722;12.012;2023-07-28T03:35:05;12.23;;;5.53;;
19599;SDS011;9947;57.722;12.012;2023-07-28T03:37:34;7.87;;;4.93;;
19599;SDS011;9947;57.722;12.012;2023-07-28T03:40:04;9.07;;;5.30;;
19599;SDS011;9947;57.722;12.012;2023-07-28T03:42:34;10.20;;;5.97;;
19599;SDS011;9947;57.722;12.012;2023-07-28T03:45:03;8.30;;;5.20;;
19599;SDS011;9947;57.722;12.012;2023-07-28T03:47:32;8.37;;;5.33;;
19599;SDS011;9947;57.722;12.012;2023-07-28T03:52:27;13.27;;;5.43;;
19599;SDS011;9947;57.722;12.012;2023-07-28T03:57:20;6.65;;;5.40;;
19599;SDS011;9947;57.722;12.012;2023-07-28T03:59:47;6.67;;;4.77;;
19599;SDS011;9947;57.722;12.012;2023-07-28T04:02:22;7.90;;;5.30;;
19599;SDS011;9947;57.722;12.012;2023-07-28T04:04:53;8.80;;;5.53;;
19599;SDS011;9947;57.722;12.012;2023-07-28T04:07:20;8.37;;;5.20;;
19599;SDS011;9947;57.722;12.012;2023-07-28T04:09:48;6.47;;;5.20;;
19599;SDS011;9947;57.722;12.012;2023-07-28T04:12:16;7.77;;;5.20;;
19599;SDS011;9947;57.722;12.012;2023-07-28T04:14:45;10.20;;;5.37;;
19599;SDS011;9947;57.722;12.012;2023-07-28T04:17:12;9.93;;;4.57;;
19599;SDS011;9947;57.722;12.012;2023-07-28T04:19:39;14.33;;;5.43;;
19599;SDS011;9947;57.722;12.012;2023-07-28T04:24:41;9.83;;;4.63;;
19599;SDS011;9947;57.722;12.012;2023-07-28T04:27:09;9.37;;;5.03;;
19599;SDS011;9947;57.722;12.012;2023-07-28T04:29:35;7.57;;;4.93;;
19599;SDS011;9947;57.722;12.012;2023-07-28T04:32:04;6.00;;;4.57;;
19599;SDS011;9947;57.722;12.012;2023-07-28T04:34:32;8.90;;;4.30;;
19599;SDS011;9947;57.722;12.012;2023-07-28T04:37:03;5.47;;;4.17;;
19599;SDS011;9947;57.722;12.012;2023-07-28T04:39:30;5.30;;;4.17;;
19599;SDS011;9947;57.722;12.012;2023-07-28T04:41:58;5.57;;;4.67;;
19599;SDS011;9947;57.722;12.012;2023-07-28T04:44:25;6.17;;;4.70;;
19599;SDS011;9947;57.722;12.012;2023-07-28T04:46:53;6.60;;;4.40;;
19599;SDS011;9947;57.722;12.012;2023-07-28T04:49:22;4.57;;;4.07;;
19599;SDS011;9947;57.722;12.012;2023-07-28T04:51:49;5.30;;;4.03;;
19599;SDS011;9947;57.722;12.012;2023-07-28T04:54:16;5.00;;;3.13;;
19599;SDS011;9947;57.722;12.012;2023-07-28T04:56:45;8.87;;;3.77;;
19599;SDS011;9947;57.722;12.012;2023-07-28T04:59:12;7.70;;;3.80;;
19599;SDS011;9947;57.722;12.012;2023-07-28T05:01:39;3.80;;;3.50;;
19599;SDS011;9947;57.722;12.012;2023-07-28T05:04:06;5.60;;;3.10;;
19599;SDS011;9947;57.722;12.012;2023-07-28T05:06:35;5.30;;;3.10;;
19599;SDS011;9947;57.722;12.012;2023-07-28T05:11:27;6.10;;;3.17;;
19599;SDS011;9947;57.722;12.012;2023-07-28T05:16:19;3.75;;;2.70;;
19599;SDS011;9947;57.722;12.012;2023-07-28T05:18:46;4.53;;;2.50;;
19599;SDS011;9947;57.722;12.012;2023-07-28T05:21:13;4.50;;;2.30;;
19599;SDS011;9947;57.722;12.012;2023-07-28T05:23:42;3.70;;;2.00;;
19599;SDS011;9947;57.722;12.012;2023-07-28T05:26:10;1.95;;;1.75;;
19599;SDS011;9947;57.722;12.012;2023-07-28T05:28:40;2.75;;;1.63;;
19599;SDS011;9947;57.722;12.012;2023-07-28T05:31:07;3.80;;;1.83;;
19599;SDS011;9947;57.722;12.012;2023-07-28T05:33:35;4.10;;;1.83;;
19599;SDS011;9947;57.722;12.012;2023-07-28T05:36:06;2.42;;;1.83;;
19599;SDS011;9947;57.722;12.012;2023-07-28T05:38:33;5.22;;;2.22;;
19599;SDS011;9947;57.722;12.012;2023-07-28T05:43:31;5.63;;;1.73;;
19599;SDS011;9947;57.722;12.012;2023-07-28T05:48:27;1.90;;;1.50;;
19599;SDS011;9947;57.722;12.012;2023-07-28T05:51:01;2.47;;;1.80;;
19599;SDS011;9947;57.722;12.012;2023-07-28T05:53:29;5.63;;;1.80;;
19599;SDS011;9947;57.722;12.012;2023-07-28T05:58:20;3.47;;;1.90;;
19599;SDS011;9947;57.722;12.012;2023-07-28T06:03:34;4.05;;;2.08;;
19599;SDS011;9947;57.722;12.012;2023-07-28T06:06:02;4.05;;;2.00;;
19599;SDS011;9947;57.722;12.012;2023-07-28T06:08:29;4.47;;;2.05;;
19599;SDS011;9947;57.722;12.012;2023-07-28T06:13:22;6.38;;;1.85;;
19599;SDS011;9947;57.722;12.012;2023-07-28T06:15:52;5.57;;;2.25;;
19599;SDS011;9947;57.722;12.012;2023-07-28T06:18:23;4.75;;;2.05;;
19599;SDS011;9947;57.722;12.012;2023-07-28T06:20:50;4.72;;;2.40;;
19599;SDS011;9947;57.722;12.012;2023-07-28T06:23:19;7.70;;;3.33;;
19599;SDS011;9947;57.722;12.012;2023-07-28T06:25:46;10.93;;;4.88;;
19599;SDS011;9947;57.722;12.012;2023-07-28T06:28:13;7.95;;;3.65;;
19599;SDS011;9947;57.722;12.012;2023-07-28T06:30:42;8.55;;;3.22;;
19599;SDS011;9947;57.722;12.012;2023-07-28T06:33:08;5.72;;;1.73;;
19599;SDS011;9947;57.722;12.012;2023-07-28T06:35:38;3.65;;;2.00;;
19599;SDS011;9947;57.722;12.012;2023-07-28T06:40:33;8.93;;;1.80;;
19599;SDS011;9947;57.722;12.012;2023-07-28T06:43:03;3.70;;;1.90;;
19599;SDS011;9947;57.722;12.012;2023-07-28T06:45:32;3.15;;;1.95;;
19599;SDS011;9947;57.722;12.012;2023-07-28T06:50:25;4.35;;;1.98;;
19599;SDS011;9947;57.722;12.012;2023-07-28T06:52:53;4.00;;;2.00;;
19599;SDS011;9947;57.722;12.012;2023-07-28T06:55:24;1.90;;;1.65;;
19599;SDS011;9947;57.722;12.012;2023-07-28T06:57:52;3.47;;;2.00;;
19599;SDS011;9947;57.722;12.012;2023-07-28T07:00:19;3.35;;;1.80;;
19599;SDS011;9947;57.722;12.012;2023-07-28T07:02:48;6.10;;;2.00;;
19599;SDS011;9947;57.722;12.012;2023-07-28T07:05:15;5.50;;;2.47;;
19599;SDS011;9947;57.722;12.012;2023-07-28T07:07:43;3.42;;;2.28;;
19599;SDS011;9947;57.722;12.012;2023-07-28T07:10:11;3.30;;;2.10;;
19599;SDS011;9947;57.722;12.012;2023-07-28T07:12:38;4.28;;;2.13;;
19599;SDS011;9947;57.722;12.012;2023-07-28T07:17:33;5.82;;;2.20;;
19599;SDS011;9947;57.722;12.012;2023-07-28T07:27:39;3.60;;;1.75;;
19599;SDS011;9947;57.722;12.012;2023-07-28T07:30:13;2.88;;;1.85;;
19599;SDS011;9947;57.722;12.012;2023-07-28T07:32:41;5.55;;;2.22;;
19599;SDS011;9947;57.722;12.012;2023-07-28T07:35:08;2.80;;;2.25;;
19599;SDS011;9947;57.722;12.012;2023-07-28T07:37:36;4.03;;;2.20;;
19599;SDS011;9947;57.722;12.012;2023-07-28T07:42:45;3.88;;;1.95;;
19599;SDS011;9947;57.722;12.012;2023-07-28T07:45:13;2.57;;;1.70;;
19599;SDS011;9947;57.722;12.012;2023-07-28T07:47:41;3.72;;;1.88;;
19599;SDS011;9947;57.722;12.012;2023-07-28T07:50:11;3.00;;;1.90;;
19599;SDS011;9947;57.722;12.012;2023-07-28T07:52:43;3.25;;;1.80;;
19599;SDS011;9947;57.722;12.012;2023-07-28T07:55:12;3.33;;;1.98;;
19599;SDS011;9947;57.722;12.012;2023-07-28T07:57:41;3.65;;;1.90;;
19599;SDS011;9947;57.722;12.012;2023-07-28T08:00:19;3.13;;;1.80;;
19599;SDS011;9947;57.722;12.012;2023-07-28T08:02:52;4.40;;;2.08;;
19599;SDS011;9947;57.722;12.012;2023-07-28T08:05:20;3.03;;;2.10;;
19599;SDS011;9947;57.722;12.012;2023-07-28T08:07:47;3.88;;;2.00;;
19599;SDS011;9947;57.722;12.012;2023-07-28T08:10:16;2.72;;;1.90;;
19599;SDS011;9947;57.722;12.012;2023-07-28T08:12:43;2.03;;;1.60;;
19599;SDS011;9947;57.722;12.012;2023-07-28T08:15:13;2.67;;;2.00;;
19599;SDS011;9947;57.722;12.012;2023-07-28T08:17:44;3.55;;;1.90;;
19599;SDS011;9947;57.722;12.012;2023-07-28T08:20:12;3.15;;;1.83;;
19599;SDS011;9947;57.722;12.012;2023-07-28T08:22:43;3.75;;;2.08;;
19599;SDS011;9947;57.722;12.012;2023-07-28T08:25:10;3.83;;;1.75;;
19599;SDS011;9947;57.722;12.012;2023-07-28T08:27:37;4.53;;;1.60;;
19599;SDS011;9947;57.722;12.012;2023-07-28T08:30:05;2.50;;;1.60;;
19599;SDS011;9947;57.722;12.012;2023-07-28T08:32:34;2.30;;;1.77;;
19599;SDS011;9947;57.722;12.012;2023-07-28T08:37:29;2.10;;;1.85;;
19599;SDS011;9947;57.722;12.012;2023-07-28T08:40:05;2.55;;;2.08;;
19599;SDS011;9947;57.722;12.012;2023-07-28T08:42:37;2.47;;;1.63;;
19599;SDS011;9947;57.722;12.012;2023-07-28T08:45:08;2.03;;;1.63;;
19599;SDS011;9947;57.722;12.012;2023-07-28T08:47:39;1.60;;;1.50;;
19599;SDS011;9947;57.722;12.012;2023-07-28T08:50:09;1.75;;;1.65;;
19599;SDS011;9947;57.722;12.012;2023-07-28T08:52:47;3.47;;;1.80;;
19599;SDS011;9947;57.722;12.012;2023-07-28T08:55:43;6.50;;;2.00;;
19599;SDS011;9947;57.722;12.012;2023-07-28T08:58:16;6.43;;;2.05;;
19599;SDS011;9947;57.722;12.012;2023-07-28T09:00:52;3.15;;;1.55;;
19599;SDS011;9947;57.722;12.012;2023-07-28T09:03:21;2.00;;;1.60;;
19599;SDS011;9947;57.722;12.012;2023-07-28T09:05:52;4.63;;;1.70;;
19599;SDS011;9947;57.722;12.012;2023-07-28T09:08:26;1.90;;;1.73;;
19599;SDS011;9947;57.722;12.012;2023-07-28T09:10:54;3.35;;;1.98;;
19599;SDS011;9947;57.722;12.012;2023-07-28T09:13:23;3.75;;;2.05;;
19599;SDS011;9947;57.722;12.012;2023-07-28T09:15:53;2.00;;;1.75;;
19599;SDS011;9947;57.722;12.012;2023-07-28T09:18:22;2.08;;;1.80;;
19599;SDS011;9947;57.722;12.012;2023-07-28T09:21:15;1.90;;;1.70;;
19599;SDS011;9947;57.722;12.012;2023-07-28T09:23:46;3.20;;;1.70;;
19599;SDS011;9947;57.722;12.012;2023-07-28T09:26:15;4.05;;;1.83;;
19599;SDS011;9947;57.722;12.012;2023-07-28T09:28:43;2.25;;;1.83;;
19599;SDS011;9947;57.722;12.012;2023-07-28T09:31:13;2.20;;;1.70;;
19599;SDS011;9947;57.722;12.012;2023-07-28T09:33:40;2.88;;;1.77;;
19599;SDS011;9947;57.722;12.012;2023-07-28T09:36:12;1.60;;;1.50;;
19599;SDS011;9947;57.722;12.012;2023-07-28T09:38:42;2.75;;;1.88;;
19599;SDS011;9947;57.722;12.012;2023-07-28T09:41:11;1.70;;;1.60;;
19599;SDS011;9947;57.722;12.012;2023-07-28T09:43:40;2.75;;;1.60;;
19599;SDS011;9947;57.722;12.012;2023-07-28T09:46:09;2.45;;;1.90;;
19599;SDS011;9947;57.722;12.012;2023-07-28T09:48:37;3.05;;;1.80;;
19599;SDS011;9947;57.722;12.012;2023-07-28T09:51:08;2.72;;;1.85;;
19599;SDS011;9947;57.722;12.012;2023-07-28T09:53:40;1.77;;;1.67;;
19599;SDS011;9947;57.722;12.012;2023-07-28T09:56:14;1.95;;;1.80;;
19599;SDS011;9947;57.722;12.012;2023-07-28T09:58:48;2.58;;;1.77;;
19599;SDS011;9947;57.722;12.012;2023-07-28T10:01:20;2.08;;;1.88;;
19599;SDS011;9947;57.722;12.012;2023-07-28T10:03:49;4.63;;;1.95;;
19599;SDS011;9947;57.722;12.012;2023-07-28T10:06:18;2.65;;;2.05;;
19599;SDS011;9947;57.722;12.012;2023-07-28T10:08:48;1.83;;;1.70;;
19599;SDS011;9947;57.722;12.012;2023-07-28T10:11:18;3.10;;;1.92;;
19599;SDS011;9947;57.722;12.012;2023-07-28T10:13:47;5.82;;;2.20;;
19599;SDS011;9947;57.722;12.012;2023-07-28T10:16:17;2.90;;;1.52;;
19599;SDS011;9947;57.722;12.012;2023-07-28T10:19:03;4.43;;;2.10;;
19599;SDS011;9947;57.722;12.012;2023-07-28T10:21:38;2.03;;;1.83;;
19599;SDS011;9947;57.722;12.012;2023-07-28T10:24:07;1.92;;;1.83;;
19599;SDS011;9947;57.722;12.012;2023-07-28T10:26:44;2.10;;;1.88;;
19599;SDS011;9947;57.722;12.012;2023-07-28T10:29:12;2.95;;;1.90;;
19599;SDS011;9947;57.722;12.012;2023-07-28T10:31:51;3.13;;;2.03;;
19599;SDS011;9947;57.722;12.012;2023-07-28T10:34:19;1.90;;;1.80;;
19599;SDS011;9947;57.722;12.012;2023-07-28T10:39:28;2.20;;;2.00;;
19599;SDS011;9947;57.722;12.012;2023-07-28T10:42:03;2.47;;;1.90;;
19599;SDS011;9947;57.722;12.012;2023-07-28T10:44:36;2.85;;;1.83;;
19599;SDS011;9947;57.722;12.012;2023-07-28T10:49:34;2.65;;;1.95;;
19599;SDS011;9947;57.722;12.012;2023-07-28T10:52:15;4.20;;;1.90;;
19599;SDS011;9947;57.722;12.012;2023-07-28T10:54:49;2.17;;;1.58;;
19599;SDS011;9947;57.722;12.012;2023-07-28T10:57:17;2.90;;;2.10;;
19599;SDS011;9947;57.722;12.012;2023-07-28T10:59:44;2.10;;;1.90;;
19599;SDS011;9947;57.722;12.012;2023-07-28T11:02:16;3.58;;;1.73;;
19599;SDS011;9947;57.722;12.012;2023-07-28T11:04:45;2.25;;;2.03;;
19599;SDS011;9947;57.722;12.012;2023-07-28T11:07:13;3.20;;;1.95;;
19599;SDS011;9947;57.722;12.012;2023-07-28T11:09:41;1.90;;;1.80;;
19599;SDS011;9947;57.722;12.012;2023-07-28T11:12:10;2.65;;;2.30;;
19599;SDS011;9947;57.722;12.012;2023-07-28T11:14:40;2.05;;;1.90;;
19599;SDS011;9947;57.722;12.012;2023-07-28T11:17:07;3.67;;;2.13;;
19599;SDS011;9947;57.722;12.012;2023-07-28T11:19:36;4.55;;;2.10;;
19599;SDS011;9947;57.722;12.012;2023-07-28T11:22:03;3.75;;;2.10;;
19599;SDS011;9947;57.722;12.012;2023-07-28T11:24:33;3.33;;;2.00;;
19599;SDS011;9947;57.722;12.012;2023-07-28T11:29:25;2.55;;;2.20;;
19599;SDS011;9947;57.722;12.012;2023-07-28T11:31:56;3.25;;;2.00;;
19599;SDS011;9947;57.722;12.012;2023-07-28T11:34:25;5.22;;;2.08;;
19599;SDS011;9947;57.722;12.012;2023-07-28T11:36:52;4.07;;;1.90;;
19599;SDS011;9947;57.722;12.012;2023-07-28T11:39:20;1.50;;;1.40;;
19599;SDS011;9947;57.722;12.012;2023-07-28T11:41:48;3.17;;;1.80;;
19599;SDS011;9947;57.722;12.012;2023-07-28T11:44:19;2.13;;;2.00;;
19599;SDS011;9947;57.722;12.012;2023-07-28T11:46:49;3.03;;;1.77;;
19599;SDS011;9947;57.722;12.012;2023-07-28T11:49:21;4.07;;;2.10;;
19599;SDS011;9947;57.722;12.012;2023-07-28T11:51:49;2.60;;;1.80;;
19599;SDS011;9947;57.722;12.012;2023-07-28T11:54:18;3.40;;;2.20;;
19599;SDS011;9947;57.722;12.012;2023-07-28T11:56:47;4.78;;;2.35;;
19599;SDS011;9947;57.722;12.012;2023-07-28T11:59:14;5.25;;;2.17;;
19599;SDS011;9947;57.722;12.012;2023-07-28T12:01:51;2.90;;;1.70;;
19599;SDS011;9947;57.722;12.012;2023-07-28T12:04:26;2.22;;;2.03;;
19599;SDS011;9947;57.722;12.012;2023-07-28T12:09:24;4.88;;;2.15;;
19599;SDS011;9947;57.722;12.012;2023-07-28T12:11:52;6.32;;;2.00;;
19599;SDS011;9947;57.722;12.012;2023-07-28T12:14:29;2.17;;;1.98;;
19599;SDS011;9947;57.722;12.012;2023-07-28T12:19:32;2.10;;;1.90;;
19599;SDS011;9947;57.722;12.012;2023-07-28T12:22:07;3.83;;;2.28;;
19599;SDS011;9947;57.722;12.012;2023-07-28T12:24:35;3.70;;;2.17;;
19599;SDS011;9947;57.722;12.012;2023-07-28T12:29:38;2.42;;;2.00;;
19599;SDS011;9947;57.722;12.012;2023-07-28T12:32:08;5.43;;;2.50;;
19599;SDS011;9947;57.722;12.012;2023-07-28T12:34:42;3.83;;;2.20;;
19599;SDS011;9947;57.722;12.012;2023-07-28T12:37:15;4.43;;;2.15;;
19599;SDS011;9947;57.722;12.012;2023-07-28T12:39:44;4.50;;;2.10;;
19599;SDS011;9947;57.722;12.012;2023-07-28T12:44:50;6.20;;;2.47;;
19599;SDS011;9947;57.722;12.012;2023-07-28T12:47:31;4.90;;;2.30;;
19599;SDS011;9947;57.722;12.012;2023-07-28T12:50:05;4.15;;;2.33;;
19599;SDS011;9947;57.722;12.012;2023-07-28T12:52:34;3.28;;;2.20;;
19599;SDS011;9947;57.722;12.012;2023-07-28T12:57:26;3.13;;;1.95;;
19599;SDS011;9947;57.722;12.012;2023-07-28T12:59:55;3.13;;;2.10;;
19599;SDS011;9947;57.722;12.012;2023-07-28T13:02:23;4.82;;;2.08;;
19599;SDS011;9947;57.722;12.012;2023-07-28T13:04:50;4.20;;;2.10;;
19599;SDS011;9947;57.722;12.012;2023-07-28T13:07:19;4.00;;;2.47;;
19599;SDS011;9947;57.722;12.012;2023-07-28T13:09:47;5.90;;;2.80;;
19599;SDS011;9947;57.722;12.012;2023-07-28T13:12:16;2.83;;;2.00;;
19599;SDS011;9947;57.722;12.012;2023-07-28T13:14:48;3.33;;;2.00;;
19599;SDS011;9947;57.722;12.012;2023-07-28T13:17:15;1.80;;;1.53;;
19599;SDS011;9947;57.722;12.012;2023-07-28T13:19:45;1.93;;;1.60;;
19599;SDS011;9947;57.722;12.012;2023-07-28T13:22:13;1.70;;;1.60;;
19599;SDS011;9947;57.722;12.012;2023-07-28T13:24:49;2.57;;;1.70;;
19599;SDS011;9947;57.722;12.012;2023-07-28T13:27:17;1.37;;;1.20;;
19599;SDS011;9947;57.722;12.012;2023-07-28T13:32:30;3.65;;;1.45;;
19599;SDS011;9947;57.722;12.012;2023-07-28T13:35:01;3.28;;;1.70;;
19599;SDS011;9947;57.722;12.012;2023-07-28T13:37:29;1.30;;;1.20;;
19599;SDS011;9947;57.722;12.012;2023-07-28T13:42:25;2.17;;;1.65;;
19599;SDS011;9947;57.722;12.012;2023-07-28T13:44:53;2.70;;;2.10;;
19599;SDS011;9947;57.722;12.012;2023-07-28T13:47:23;2.17;;;1.97;;
19599;SDS011;9947;57.722;12.012;2023-07-28T13:49:52;2.10;;;1.87;;
19599;SDS011;9947;57.722;12.012;2023-07-28T13:52:39;3.80;;;2.17;;
19599;SDS011;9947;57.722;12.012;2023-07-28T13:55:07;6.38;;;2.75;;
19599;SDS011;9947;57.722;12.012;2023-07-28T13:57:36;2.90;;;2.40;;
19599;SDS011;9947;57.722;12.012;2023-07-28T14:00:04;3.65;;;2.17;;
19599;SDS011;9947;57.722;12.012;2023-07-28T14:02:34;3.65;;;2.25;;
19599;SDS011;9947;57.722;12.012;2023-07-28T14:07:34;3.63;;;2.70;;
19599;SDS011;9947;57.722;12.012;2023-07-28T14:12:26;3.07;;;2.20;;
19599;SDS011;9947;57.722;12.012;2023-07-28T14:14:54;3.83;;;2.10;;
19599;SDS011;9947;57.722;12.012;2023-07-28T14:17:21;5.80;;;2.58;;
19599;SDS011;9947;57.722;12.012;2023-07-28T14:19:51;3.60;;;2.23;;
19599;SDS011;9947;57.722;12.012;2023-07-28T14:22:18;2.30;;;2.10;;
19599;SDS011;9947;57.722;12.012;2023-07-28T14:24:45;2.22;;;2.00;;
19599;SDS011;9947;57.722;12.012;2023-07-28T14:27:12;4.50;;;2.13;;
19599;SDS011;9947;57.722;12.012;2023-07-28T14:29:39;3.20;;;2.22;;
19599;SDS011;9947;57.722;12.012;2023-07-28T14:32:11;2.53;;;1.97;;
19599;SDS011;9947;57.722;12.012;2023-07-28T14:34:38;2.43;;;1.93;;
19599;SDS011;9947;57.722;12.012;2023-07-28T14:37:06;2.77;;;1.97;;
19599;SDS011;9947;57.722;12.012;2023-07-28T14:39:35;2.10;;;1.90;;
19599;SDS011;9947;57.722;12.012;2023-07-28T14:44:27;2.00;;;1.63;;
19599;SDS011;9947;57.722;12.012;2023-07-28T14:46:55;2.07;;;1.53;;
19599;SDS011;9947;57.722;12.012;2023-07-28T14:49:24;1.63;;;1.50;;
19599;SDS011;9947;57.722;12.012;2023-07-28T14:51:53;2.03;;;1.40;;
19599;SDS011;9947;57.722;12.012;2023-07-28T14:54:20;1.90;;;1.80;;
19599;SDS011;9947;57.722;12.012;2023-07-28T14:56:47;2.73;;;1.90;;
19599;SDS011;9947;57.722;12.012;2023-07-28T14:59:15;3.63;;;1.70;;
19599;SDS011;9947;57.722;12.012;2023-07-28T15:01:43;3.50;;;1.90;;
19599;SDS011;9947;57.722;12.012;2023-07-28T15:04:11;2.80;;;1.90;;
19599;SDS011;9947;57.722;12.012;2023-07-28T15:06:41;2.50;;;1.87;;
19599;SDS011;9947;57.722;12.012;2023-07-28T15:09:09;2.60;;;2.00;;
19599;SDS011;9947;57.722;12.012;2023-07-28T15:11:36;1.90;;;1.80;;
19599;SDS011;9947;57.722;12.012;2023-07-28T15:16:32;2.73;;;2.00;;
19599;SDS011;9947;57.722;12.012;2023-07-28T15:21:25;2.47;;;2.03;;
19599;SDS011;9947;57.722;12.012;2023-07-28T15:23:58;4.87;;;2.40;;
19599;SDS011;9947;57.722;12.012;2023-07-28T15:26:25;3.03;;;2.30;;
19599;SDS011;9947;57.722;12.012;2023-07-28T15:28:55;4.03;;;1.87;;
19599;SDS011;9947;57.722;12.012;2023-07-28T15:31:25;3.00;;;2.30;;
19599;SDS011;9947;57.722;12.012;2023-07-28T15:33:53;3.10;;;2.33;;
19599;SDS011;9947;57.722;12.012;2023-07-28T15:36:21;4.50;;;2.50;;
19599;SDS011;9947;57.722;12.012;2023-07-28T15:38:49;3.43;;;2.60;;
19599;SDS011;9947;57.722;12.012;2023-07-28T15:41:20;4.10;;;2.30;;
19599;SDS011;9947;57.722;12.012;2023-07-28T15:43:47;2.33;;;2.13;;
19599;SDS011;9947;57.722;12.012;2023-07-28T15:46:15;4.87;;;2.63;;
19599;SDS011;9947;57.722;12.012;2023-07-28T15:48:42;5.93;;;3.27;;
19599;SDS011;9947;57.722;12.012;2023-07-28T15:51:11;8.47;;;3.37;;
19599;SDS011;9947;57.722;12.012;2023-07-28T15:53:39;9.47;;;4.73;;
19599;SDS011;9947;57.722;12.012;2023-07-28T15:58:33;5.33;;;3.13;;
19599;SDS011;9947;57.722;12.012;2023-07-28T16:03:26;32.70;;;12.83;;
19599;SDS011;9947;57.722;12.012;2023-07-28T16:05:55;34.77;;;11.33;;
19599;SDS011;9947;57.722;12.012;2023-07-28T16:08:23;23.47;;;7.30;;
19599;SDS011;9947;57.722;12.012;2023-07-28T16:10:51;12.07;;;4.80;;
19599;SDS011;9947;57.722;12.012;2023-07-28T16:13:19;9.03;;;4.00;;
19599;SDS011;9947;57.722;12.012;2023-07-28T16:15:49;3.93;;;2.70;;
19599;SDS011;9947;57.722;12.012;2023-07-28T16:23:22;4.67;;;2.30;;
19599;SDS011;9947;57.722;12.012;2023-07-28T16:25:49;4.20;;;2.30;;
19599;SDS011;9947;57.722;12.012;2023-07-28T16:28:16;2.03;;;1.90;;
19599;SDS011;9947;57.722;12.012;2023-07-28T16:30:45;2.60;;;2.40;;
19599;SDS011;9947;57.722;12.012;2023-07-28T16:33:14;4.07;;;2.27;;
19599;SDS011;9947;57.722;12.012;2023-07-28T16:35:44;3.53;;;2.43;;